createdAt,value
2023-04-15T00:01:59.956Z,41.20
2023-04-15T00:07:03.362Z,41.40
2023-04-15T00:12:09.146Z,41.60
2023-04-15T00:17:13.250Z,41.60
2023-04-15T00:22:16.278Z,41.80
2023-04-15T00:27:20.941Z,41.80
2023-04-15T00:32:23.818Z,41.80
2023-04-15T00:37:26.823Z,41.80
2023-04-15T00:42:31.276Z,41.60
2023-04-15T00:47:35.826Z,41.90
2023-04-15T00:52:39.527Z,42.00
2023-04-15T00:57:45.149Z,42.20
2023-04-15T01:02:49.197Z,42.10
2023-04-15T01:07:54.535Z,42.20
2023-04-15T01:12:58.993Z,42.40
2023-04-15T01:18:02.365Z,42.20
2023-04-15T01:23:06.957Z,42.20
2023-04-15T01:28:11.823Z,42.50
2023-04-15T01:33:14.692Z,42.30
2023-04-15T01:38:18.320Z,42.40
2023-04-15T01:43:22.753Z,42.50
2023-04-15T01:48:26.432Z,42.50
2023-04-15T01:53:30.477Z,42.40
2023-04-15T01:58:34.956Z,42.50
2023-04-15T02:03:39.051Z,42.80
2023-04-15T02:08:42.044Z,42.50
2023-04-15T02:13:46.479Z,42.50
2023-04-15T02:18:49.625Z,42.50
2023-04-15T02:23:54.235Z,42.80
2023-04-15T02:28:58.837Z,42.60
2023-04-15T02:34:04.276Z,42.70
2023-04-15T02:39:07.309Z,42.70
2023-04-15T02:44:13.086Z,42.50
2023-04-15T02:49:15.901Z,42.90
2023-04-15T02:54:19.316Z,42.60
2023-04-15T02:59:23.701Z,43.10
2023-04-15T03:04:26.578Z,42.90
2023-04-15T03:09:29.485Z,43.10
2023-04-15T03:14:34.041Z,43.00
2023-04-15T03:19:36.854Z,42.90
2023-04-15T03:24:39.710Z,43.20
2023-04-15T03:29:44.122Z,42.90
2023-04-15T03:34:46.966Z,42.90
2023-04-15T03:39:49.794Z,43.00
2023-04-15T03:44:53.914Z,43.00
2023-04-15T03:49:56.696Z,43.00
2023-04-15T03:54:59.529Z,43.30
2023-04-15T04:00:03.877Z,43.20
2023-04-15T04:05:07.101Z,43.50
2023-04-15T04:10:10.712Z,43.20
2023-04-15T04:15:14.897Z,43.40
2023-04-15T04:20:17.877Z,43.40
2023-04-15T04:25:21.071Z,43.60
2023-04-15T04:30:25.290Z,43.50
2023-04-15T04:35:28.641Z,43.70
2023-04-15T04:40:31.527Z,43.70
2023-04-15T04:45:36.278Z,43.40
2023-04-15T04:50:40.077Z,43.50
2023-04-15T04:55:42.887Z,43.80
2023-04-15T05:00:47.909Z,43.90
2023-04-15T05:05:51.245Z,43.80
2023-04-15T05:10:54.186Z,43.80
2023-04-15T05:15:58.451Z,43.70
2023-04-15T05:21:02.360Z,43.90
2023-04-15T05:26:05.309Z,43.90
2023-04-15T05:31:10.222Z,44.00
2023-04-15T05:36:21.174Z,44.20
2023-04-15T05:41:24.399Z,44.00
2023-04-15T05:46:28.630Z,44.20
2023-04-15T05:51:31.452Z,44.20
2023-04-15T05:56:34.353Z,44.50
2023-04-15T06:01:38.592Z,44.30
2023-04-15T06:06:41.983Z,44.30
2023-04-15T06:11:44.920Z,44.00
2023-04-15T06:16:49.127Z,44.10
2023-04-15T06:21:51.988Z,44.20
2023-04-15T06:26:54.989Z,44.10
2023-04-15T06:32:02.035Z,44.10
2023-04-15T06:37:16.132Z,44.10
2023-04-15T06:42:19.221Z,43.90
2023-04-15T06:47:23.537Z,43.80
2023-04-15T06:52:26.421Z,44.20
2023-04-15T06:57:29.664Z,44.10
2023-04-15T07:02:33.990Z,44.20
2023-04-15T07:07:38.392Z,44.20
2023-04-15T07:12:41.674Z,44.40
2023-04-15T07:17:46.367Z,44.30
2023-04-15T07:22:49.475Z,44.10
2023-04-15T07:27:53.787Z,44.20
2023-04-15T07:33:00.500Z,44.10
2023-04-15T07:38:03.912Z,44.10
2023-04-15T07:43:07.713Z,44.10
2023-04-15T07:48:12.377Z,44.00
2023-04-15T07:53:15.402Z,44.00
2023-04-15T07:58:18.633Z,44.20
2023-04-15T08:03:23.664Z,44.40
2023-04-15T08:08:27.221Z,44.30
2023-04-15T08:13:30.117Z,44.40
2023-04-15T08:18:34.298Z,44.50
2023-04-15T08:23:37.236Z,44.30
2023-04-15T08:28:41.690Z,44.20
2023-04-15T08:33:46.262Z,44.40
2023-04-15T08:38:49.089Z,44.40
2023-04-15T08:43:57.891Z,44.40
2023-04-15T08:49:05.284Z,44.40
2023-04-15T08:54:09.113Z,44.30
2023-04-15T08:59:12.505Z,44.30
2023-04-15T09:04:18.057Z,43.90
2023-04-15T09:09:21.810Z,44.20
2023-04-15T09:14:24.681Z,44.10
2023-04-15T09:19:29.421Z,43.70
2023-04-15T09:24:38.474Z,43.80
2023-04-15T09:29:42.657Z,43.50
2023-04-15T09:34:48.078Z,43.70
2023-04-15T09:39:52.883Z,43.30
2023-04-15T09:44:56.172Z,43.30
2023-04-15T09:50:01.326Z,43.40
2023-04-15T09:55:04.672Z,43.20
2023-04-15T10:00:09.078Z,43.30
2023-04-15T10:05:15.778Z,43.30
2023-04-15T10:10:19.306Z,43.10
2023-04-15T10:15:22.567Z,43.20
2023-04-15T10:20:27.410Z,43.00
2023-04-15T10:25:30.652Z,42.80
2023-04-15T10:30:34.187Z,42.80
2023-04-15T10:35:40.547Z,42.80
2023-04-15T10:40:45.299Z,42.80
2023-04-15T10:45:49.570Z,42.80
2023-04-15T10:50:58.904Z,42.60
2023-04-15T10:56:02.651Z,42.50
2023-04-15T11:01:05.907Z,42.40
2023-04-15T11:06:10.612Z,42.30
2023-04-15T11:11:13.422Z,42.20
2023-04-15T11:16:16.362Z,42.20
2023-04-15T11:21:22.711Z,42.10
2023-04-15T11:26:27.643Z,42.20
2023-04-15T11:31:30.497Z,42.10
2023-04-15T11:36:34.709Z,42.30
2023-04-15T11:41:37.490Z,42.30
2023-04-15T11:46:40.392Z,42.00
2023-04-15T11:51:44.662Z,42.40
2023-04-15T11:56:51.814Z,42.40
2023-04-15T12:01:54.993Z,42.10
2023-04-15T12:07:05.896Z,42.00
2023-04-15T12:12:08.917Z,42.00
2023-04-15T12:17:13.186Z,41.90
2023-04-15T12:22:19.887Z,41.80
2023-04-15T12:27:22.706Z,42.20
2023-04-15T12:32:25.681Z,42.00
2023-04-15T12:37:29.961Z,41.90
2023-04-15T12:42:32.876Z,41.90
2023-04-15T12:47:35.819Z,42.10
2023-04-15T12:52:40.093Z,41.90
2023-04-15T12:57:43.401Z,41.80
2023-04-15T13:02:46.520Z,41.60
2023-04-15T13:07:50.880Z,41.90
2023-04-15T13:12:53.805Z,41.80
2023-04-15T13:17:56.752Z,41.70
2023-04-15T13:23:01.527Z,41.90
2023-04-15T13:28:05.649Z,41.70
2023-04-15T13:33:08.621Z,41.60
2023-04-15T13:38:12.897Z,41.60
2023-04-15T13:43:15.754Z,41.70
2023-04-15T13:48:18.608Z,41.70
2023-04-15T13:53:33.991Z,41.90
2023-04-15T13:58:42.290Z,41.80
2023-04-15T14:03:45.282Z,41.70
2023-04-15T14:08:49.540Z,41.60
2023-04-15T14:13:52.441Z,41.60
2023-04-15T14:18:55.931Z,41.70
2023-04-15T14:24:00.204Z,41.50
2023-04-15T14:29:03.148Z,41.40
2023-04-15T14:34:06.401Z,41.50
2023-04-15T14:39:15.614Z,41.20
2023-04-15T14:44:18.415Z,41.20
2023-04-15T14:49:21.245Z,41.30
2023-04-15T14:54:25.425Z,41.40
2023-04-15T14:59:28.208Z,41.50
2023-04-15T15:04:32.956Z,41.70
2023-04-15T15:09:37.210Z,41.50
2023-04-15T15:14:40.022Z,41.60
2023-04-15T15:19:42.886Z,41.60
2023-04-15T15:24:47.015Z,41.30
2023-04-15T15:29:50.094Z,41.50
2023-04-15T15:34:53.322Z,41.60
2023-04-15T15:39:57.618Z,41.50
2023-04-15T15:45:01.802Z,41.60
2023-04-15T15:50:06.494Z,41.70
2023-04-15T15:55:11.300Z,41.80
2023-04-15T16:00:15.701Z,41.60
2023-04-15T16:05:19.425Z,41.70
2023-04-15T16:10:24.344Z,41.70
2023-04-15T16:15:27.519Z,41.50
2023-04-15T16:20:31.277Z,41.80
2023-04-15T16:25:36.194Z,41.80
2023-04-15T16:30:41.399Z,41.80
2023-04-15T16:35:45.007Z,41.80
2023-04-15T16:40:49.311Z,41.80
2023-04-15T16:45:52.186Z,41.90
2023-04-15T16:50:55.015Z,41.90
2023-04-15T16:55:59.230Z,41.80
2023-04-15T17:01:02.180Z,41.90
2023-04-15T17:06:05.400Z,42.10
2023-04-15T17:11:09.877Z,41.90
2023-04-15T17:16:12.730Z,41.90
2023-04-15T17:21:17.041Z,42.10
2023-04-15T17:26:22.076Z,42.10
2023-04-15T17:31:24.899Z,42.10
2023-04-15T17:36:27.852Z,42.10
2023-04-15T17:41:32.032Z,42.20
2023-04-15T17:46:34.961Z,42.30
2023-04-15T17:51:37.908Z,42.20
2023-04-15T17:56:42.046Z,42.30
2023-04-15T18:01:45.437Z,42.50
2023-04-15T18:06:48.442Z,42.50
2023-04-15T18:11:52.604Z,42.30
2023-04-15T18:16:55.469Z,42.60
2023-04-15T18:22:00.017Z,42.60
2023-04-15T18:27:04.773Z,42.50
2023-04-15T18:32:07.574Z,42.80
2023-04-15T18:37:10.573Z,42.80
2023-04-15T18:42:14.744Z,42.90
2023-04-15T18:47:17.778Z,42.90
2023-04-15T18:52:21.006Z,42.90
2023-04-15T18:57:30.830Z,43.20
2023-04-15T19:02:37.868Z,42.80
2023-04-15T19:07:41.159Z,43.20
2023-04-15T19:12:45.486Z,43.00
2023-04-15T19:17:48.455Z,43.40
2023-04-15T19:22:51.633Z,43.50
2023-04-15T19:27:55.794Z,43.20
2023-04-15T19:32:58.704Z,43.40
2023-04-15T19:38:01.652Z,43.30
2023-04-15T19:43:05.869Z,43.40
2023-04-15T19:48:08.792Z,43.60
2023-04-15T19:53:11.675Z,43.70
2023-04-15T19:58:16.147Z,43.80
2023-04-15T20:03:19.265Z,43.60
2023-04-15T20:08:22.247Z,43.90
2023-04-15T20:13:26.481Z,43.70
2023-04-15T20:18:29.359Z,44.00
2023-04-15T20:23:32.156Z,43.90
2023-04-15T20:28:36.374Z,43.60
2023-04-15T20:33:39.210Z,43.90
2023-04-15T20:38:42.022Z,44.00
2023-04-15T20:43:46.185Z,44.10
2023-04-15T20:48:49.184Z,44.00
2023-04-15T20:53:52.252Z,44.10
2023-04-15T20:58:56.565Z,44.10
2023-04-15T21:03:59.773Z,44.40
2023-04-15T21:09:04.297Z,44.20
2023-04-15T21:14:09.201Z,44.20
2023-04-15T21:19:12.049Z,44.40
2023-04-15T21:24:14.903Z,44.30
2023-04-15T21:29:19.055Z,44.40
2023-04-15T21:34:21.920Z,44.40
2023-04-15T21:39:25.026Z,44.30
2023-04-15T21:44:29.381Z,44.40
2023-04-15T21:49:32.341Z,44.60
2023-04-15T21:54:37.933Z,44.40
2023-04-15T21:59:42.120Z,44.60
2023-04-15T22:04:45.629Z,44.60
2023-04-15T22:09:48.817Z,44.60
2023-04-15T22:14:53.017Z,44.40
2023-04-15T22:19:55.895Z,44.50
2023-04-15T22:24:58.720Z,44.50
2023-04-15T22:30:03.145Z,44.70
2023-04-15T22:35:06.687Z,44.80
2023-04-15T22:40:10.751Z,44.70
2023-04-15T22:45:14.925Z,44.70
2023-04-15T22:50:19.083Z,44.70
2023-04-15T22:55:22.325Z,44.50
2023-04-15T23:00:26.554Z,44.50
2023-04-15T23:05:29.393Z,44.70
2023-04-15T23:10:32.298Z,44.90
2023-04-15T23:15:36.616Z,44.70
2023-04-15T23:20:39.512Z,44.90
2023-04-15T23:25:42.404Z,44.60
2023-04-15T23:30:46.610Z,44.80
2023-04-15T23:35:50.056Z,44.60
2023-04-15T23:40:53.323Z,44.90
2023-04-15T23:45:57.501Z,44.90
2023-04-15T23:51:01.642Z,45.00
2023-04-15T23:56:06.117Z,44.80
